CDT,Max TemperatureF,Mean TemperatureF,Min TemperatureF,Max Dew PointF,MeanDew PointF,Min DewpointF,Max Humidity, Mean Humidity, Min Humidity, Max Sea Level PressureIn, Mean Sea Level PressureIn, Min Sea Level PressureIn, Max VisibilityMiles, Mean VisibilityMiles, Min VisibilityMiles, Max Wind SpeedMPH, Mean Wind SpeedMPH, Max Gust SpeedMPH,PrecipitationIn, CloudCover, Events, WindDirDegrees
2012-10-1,69,56,43,49,42,35,93,63,32,29.98,29.90,29.85,10,9,2,20,9,30,0.00,2,Fog,337
2012-10-2,64,49,34,43,38,31,92,67,42,30.00,29.93,29.84,10,10,10,16,5,18,0.00,0,,124
2012-10-3,74,58,42,44,39,31,92,56,20,29.94,29.91,29.88,10,10,10,12,6,16,0.00,0,,153
2012-10-4,56,46,35,46,36,28,77,65,53,29.94,29.82,29.69,10,10,7,38,22,46,T,6,Rain-Snow,229
2012-10-5,42,38,34,32,28,24,89,72,54,30.09,29.97,29.88,10,8,2,33,20,46,T,8,Rain-Snow,286
2012-10-6,43,35,27,29,25,19,82,63,43,30.26,30.20,30.10,10,10,9,17,9,24,T,6,Snow,320
2012-10-7,51,38,25,26,20,18,81,54,27,30.19,30.03,29.86,10,10,10,26,13,33,0.00,0,,239
2012-10-8,47,42,36,43,31,19,86,67,48,29.84,29.67,29.56,10,10,7,24,10,32,0.10,6,Rain,218
2012-10-9,47,39,31,37,32,28,89,69,49,29.90,29.74,29.66,10,9,3,24,14,31,0.03,6,Rain-Snow,280
2012-10-10,45,38,30,32,27,23,96,69,41,30.04,29.97,29.89,10,8,1,18,9,23,0.19,6,Rain-Snow,272
2012-10-11,42,36,30,32,29,21,96,73,50,30.38,30.06,29.87,10,8,1,20,10,26,0.09,6,Rain-Snow,313
2012-10-12,47,35,23,28,22,18,88,60,31,30.47,30.32,30.06,10,10,10,17,7,25,0.00,1,,177
2012-10-13,45,43,40,43,37,20,100,70,39,30.04,29.83,29.72,10,4,0,17,5,24,0.03,8,Fog,149
2012-10-14,54,47,39,40,35,26,100,68,35,29.87,29.83,29.79,10,6,0,16,6,24,0.00,4,Fog,14
2012-10-15,57,43,28,37,32,27,92,68,43,29.95,29.89,29.77,10,10,10,12,6,15,T,2,Rain,101
2012-10-16,66,55,43,48,43,37,93,71,48,29.74,29.56,29.44,10,10,7,18,7,22,0.07,4,Rain,153
2012-10-17,54,49,44,47,45,41,100,89,77,29.41,29.26,29.14,10,6,0,21,10,28,T,6,Fog-Rain,110
2012-10-18,53,49,44,46,44,42,93,82,71,29.42,29.26,29.15,10,8,2,10,3,12,0.18,8,Rain,240
2012-10-19,51,44,37,45,41,35,93,76,59,29.76,29.60,29.41,10,8,2,14,6,18,0.07,7,Rain,64
2012-10-20,53,42,30,41,34,28,100,77,54,29.83,29.77,29.73,10,4,0,12,3,15,0.00,3,Fog,162
2012-10-21,56,47,38,43,39,36,96,79,61,29.98,29.89,29.84,10,6,0,13,5,15,T,3,Fog,129
2012-10-22,52,49,45,45,43,40,92,82,71,30.11,30.05,29.99,10,10,10,25,13,32,0.00,7,,60
2012-10-23,49,47,45,47,45,43,100,93,86,30.01,29.85,29.76,10,2,0,28,15,35,0.06,8,Fog-Rain,94
2012-10-24,57,51,44,52,49,42,100,86,72,29.89,29.83,29.78,10,5,0,20,8,25,0.14,8,Fog-Rain,335
2012-10-25,44,38,32,43,33,27,92,84,75,30.01,29.78,29.69,10,6,1,24,17,33,0.37,8,Rain-Snow,317
2012-10-26,38,32,26,28,24,19,82,67,52,30.31,30.18,29.97,10,10,9,26,13,36,T,7,Snow,268
2012-10-27,40,33,25,22,19,17,81,63,44,30.37,30.33,30.28,10,10,10,17,6,22,0.00,5,,270
2012-10-28,39,34,28,30,26,21,89,77,64,30.37,30.35,30.29,10,8,1,13,4,17,0.01,7,Snow,174
2012-10-29,48,40,32,33,28,21,89,63,37,30.39,30.36,30.31,10,9,3,14,7,17,T,5,Snow,99
2012-10-30,42,35,27,32,24,11,96,62,28,30.33,30.24,30.11,10,8,5,16,7,20,0.00,2,Fog,62
2012-10-31,49,36,22,19,14,6,81,50,18,30.11,30.02,29.93,10,10,10,12,7,17,0.00,2,,329